createdAt,value
2023-03-05T00:01:46.873Z,100223.58
2023-03-05T00:04:19.489Z,100225.83
2023-03-05T00:06:50.773Z,100223.57
2023-03-05T00:09:21.564Z,100217.56
2023-03-05T00:11:52.357Z,100217.48
2023-03-05T00:14:23.037Z,100218.95
2023-03-05T00:16:53.929Z,100217.66
2023-03-05T00:19:25.215Z,100221.33
2023-03-05T00:21:56.305Z,100220.59
2023-03-05T00:24:27.025Z,100218.20
2023-03-05T00:26:57.768Z,100213.83
2023-03-05T00:29:31.562Z,100209.95
2023-03-05T00:32:02.933Z,100212.73
2023-03-05T00:34:34.091Z,100207.70
2023-03-05T00:37:05.064Z,100207.68
2023-03-05T00:39:35.880Z,100204.33
2023-03-05T00:42:07.234Z,100202.51
2023-03-05T00:44:38.065Z,100201.52
2023-03-05T00:47:09.124Z,100203.03
2023-03-05T00:49:40.091Z,100197.73
2023-03-05T00:52:10.937Z,100197.16
2023-03-05T00:54:41.820Z,100200.20
2023-03-05T00:57:12.608Z,100200.28
2023-03-05T00:59:43.337Z,100196.46
2023-03-05T01:02:14.017Z,100199.37
2023-03-05T01:04:47.349Z,100193.33
2023-03-05T01:07:18.388Z,100195.07
2023-03-05T01:09:49.334Z,100193.81
2023-03-05T01:12:20.181Z,100190.95
2023-03-05T01:14:50.841Z,100192.45
2023-03-05T01:17:21.632Z,100189.98
2023-03-05T01:19:52.419Z,100188.91
2023-03-05T01:22:23.241Z,100187.13
2023-03-05T01:24:53.935Z,100190.10
2023-03-05T01:27:24.757Z,100191.42
2023-03-05T01:29:55.768Z,100194.04
2023-03-05T01:32:26.429Z,100195.52
2023-03-05T01:34:57.213Z,100195.64
2023-03-05T01:37:28.055Z,100199.85
2023-03-05T01:39:59.154Z,100198.36
2023-03-05T01:42:30.020Z,100199.30
2023-03-05T01:45:05.026Z,100199.66
2023-03-05T01:47:35.770Z,100203.77
2023-03-05T01:50:07.208Z,100209.20
2023-03-05T01:52:38.170Z,100207.04
2023-03-05T01:55:09.932Z,100209.27
2023-03-05T01:57:41.689Z,100206.71
2023-03-05T02:00:14.782Z,100204.89
2023-03-05T02:02:46.124Z,100205.11
2023-03-05T02:05:18.191Z,100203.59
2023-03-05T02:07:49.014Z,100208.38
2023-03-05T02:10:21.187Z,100210.31
2023-03-05T02:12:51.916Z,100214.16
2023-03-05T02:15:22.829Z,100219.48
2023-03-05T02:17:53.839Z,100220.02
2023-03-05T02:20:25.541Z,100221.27
2023-03-05T02:22:56.527Z,100220.38
2023-03-05T02:25:27.993Z,100221.65
2023-03-05T02:28:00.129Z,100223.67
2023-03-05T02:30:31.488Z,100231.50
2023-03-05T02:33:02.256Z,100228.38
2023-03-05T02:35:33.209Z,100232.63
2023-03-05T02:38:03.993Z,100236.73
2023-03-05T02:40:34.850Z,100237.02
2023-03-05T02:43:05.772Z,100232.60
2023-03-05T02:45:36.658Z,100232.69
2023-03-05T02:48:07.828Z,100234.22
2023-03-05T02:50:39.872Z,100230.78
2023-03-05T02:53:10.730Z,100233.39
2023-03-05T02:55:41.840Z,100238.44
2023-03-05T02:58:12.555Z,100237.80
2023-03-05T03:00:43.479Z,100237.98
2023-03-05T03:03:14.365Z,100239.70
2023-03-05T03:05:45.097Z,100243.67
2023-03-05T03:08:16.528Z,100246.34
2023-03-05T03:10:47.441Z,100246.88
2023-03-05T03:13:18.467Z,100247.09
2023-03-05T03:15:49.145Z,100248.89
2023-03-05T03:18:20.014Z,100251.25
2023-03-05T03:20:50.854Z,100248.33
2023-03-05T03:23:21.696Z,100240.27
2023-03-05T03:25:52.542Z,100239.58
2023-03-05T03:28:23.535Z,100236.94
2023-03-05T03:30:54.355Z,100232.14
2023-03-05T03:33:25.363Z,100230.22
2023-03-05T03:35:56.252Z,100233.62
2023-03-05T03:38:27.014Z,100234.92
2023-03-05T03:40:57.743Z,100230.34
2023-03-05T03:43:28.605Z,100229.80
2023-03-05T03:45:59.374Z,100230.87
2023-03-05T03:48:30.081Z,100233.67
2023-03-05T03:51:00.930Z,100235.70
2023-03-05T03:53:31.730Z,100234.63
2023-03-05T03:56:02.515Z,100234.98
2023-03-05T03:58:33.551Z,100230.27
2023-03-05T04:01:04.466Z,100230.17
2023-03-05T04:03:35.466Z,100234.65
2023-03-05T04:06:07.284Z,100234.08
2023-03-05T04:08:38.289Z,100234.95
2023-03-05T04:11:09.281Z,100232.15
2023-03-05T04:13:40.098Z,100234.80
2023-03-05T04:16:11.085Z,100234.36
2023-03-05T04:18:41.994Z,100239.61
2023-03-05T04:21:12.927Z,100246.81
2023-03-05T04:23:43.877Z,100246.41
2023-03-05T04:26:14.637Z,100247.61
2023-03-05T04:28:45.437Z,100251.71
2023-03-05T04:31:17.418Z,100252.88
2023-03-05T04:33:48.261Z,100249.08
2023-03-05T04:36:19.114Z,100253.48
2023-03-05T04:38:49.963Z,100252.86
2023-03-05T04:41:20.712Z,100253.92
2023-03-05T04:43:51.520Z,100254.02
2023-03-05T04:46:22.306Z,100255.02
2023-03-05T04:48:53.102Z,100262.41
2023-03-05T04:51:24.041Z,100265.22
2023-03-05T04:53:54.859Z,100263.09
2023-03-05T04:56:25.668Z,100263.29
2023-03-05T04:58:56.444Z,100261.59
2023-03-05T05:01:27.317Z,100269.24
2023-03-05T05:03:58.230Z,100275.87
2023-03-05T05:06:28.936Z,100275.23
2023-03-05T05:08:59.608Z,100281.29
2023-03-05T05:11:30.387Z,100283.80
2023-03-05T05:14:01.185Z,100279.14
2023-03-05T05:16:32.227Z,100285.44
2023-03-05T05:19:03.947Z,100290.00
2023-03-05T05:21:34.774Z,100291.52
2023-03-05T05:24:06.156Z,100296.38
2023-03-05T05:26:37.050Z,100299.20
2023-03-05T05:29:07.857Z,100306.49
2023-03-05T05:31:39.206Z,100310.47
2023-03-05T05:34:10.135Z,100319.52
2023-03-05T05:36:40.920Z,100330.14
2023-03-05T05:39:12.156Z,100333.45
2023-03-05T05:41:42.913Z,100339.05
2023-03-05T05:44:13.695Z,100341.77
2023-03-05T05:46:44.600Z,100337.55
2023-03-05T05:49:15.392Z,100336.66
2023-03-05T05:51:46.348Z,100343.29
2023-03-05T05:54:17.240Z,100350.24
2023-03-05T05:56:48.083Z,100358.39
2023-03-05T05:59:18.938Z,100358.05
2023-03-05T06:01:49.783Z,100363.06
2023-03-05T06:04:20.680Z,100368.25
2023-03-05T06:06:51.549Z,100371.45
2023-03-05T06:09:22.478Z,100368.55
2023-03-05T06:11:53.356Z,100367.79
2023-03-05T06:14:24.162Z,100366.50
2023-03-05T06:16:55.098Z,100364.65
2023-03-05T06:19:25.899Z,100366.98
2023-03-05T06:21:56.715Z,100366.59
2023-03-05T06:24:27.679Z,100368.26
2023-03-05T06:26:58.447Z,100368.16
2023-03-05T06:29:29.269Z,100371.28
2023-03-05T06:32:00.346Z,100365.77
2023-03-05T06:34:31.139Z,100365.30
2023-03-05T06:37:01.963Z,100364.52
2023-03-05T06:39:33.582Z,100362.30
2023-03-05T06:42:04.479Z,100366.91
2023-03-05T06:44:35.206Z,100369.63
2023-03-05T06:47:07.470Z,100369.58
2023-03-05T06:49:38.619Z,100369.02
2023-03-05T06:52:11.001Z,100372.80
2023-03-05T06:54:41.771Z,100375.80
2023-03-05T06:57:13.778Z,100378.38
2023-03-05T06:59:44.595Z,100382.21
2023-03-05T07:02:15.889Z,100384.19
2023-03-05T07:04:46.782Z,100381.20
2023-03-05T07:07:17.631Z,100383.83
2023-03-05T07:09:51.942Z,100379.98
2023-03-05T07:12:22.798Z,100379.11
2023-03-05T07:15:00.577Z,100377.96
2023-03-05T07:17:33.486Z,100378.23
2023-03-05T07:20:13.056Z,100378.50
2023-03-05T07:22:49.429Z,100379.27
2023-03-05T07:28:33.791Z,100381.54
2023-03-05T07:31:11.890Z,100377.86
2023-03-05T07:34:01.570Z,100374.48
2023-03-05T07:36:44.543Z,100377.42
2023-03-05T07:42:50.561Z,100371.70
2023-03-05T07:45:25.272Z,100368.88
2023-03-05T07:48:02.610Z,100365.41
2023-03-05T07:53:47.562Z,100365.22
2023-03-05T07:56:29.088Z,100363.00
2023-03-05T07:59:00.812Z,100354.70
2023-03-05T08:01:34.617Z,100362.21
2023-03-05T08:04:06.864Z,100356.44
2023-03-05T08:06:39.917Z,100357.49
2023-03-05T08:09:10.814Z,100355.55
2023-03-05T08:11:43.364Z,100355.42
2023-03-05T08:14:20.257Z,100355.34
2023-03-05T08:16:52.498Z,100355.48
2023-03-05T08:19:23.421Z,100352.94
2023-03-05T08:21:55.649Z,100347.59
2023-03-05T08:24:29.957Z,100341.71
2023-03-05T08:27:01.237Z,100346.02
2023-03-05T08:29:32.609Z,100344.48
2023-03-05T08:32:19.360Z,100344.73
2023-03-05T08:34:58.112Z,100343.05
2023-03-05T08:37:30.081Z,100338.92
2023-03-05T08:40:04.107Z,100342.42
2023-03-05T08:42:43.381Z,100339.41
2023-03-05T08:45:17.233Z,100340.17
2023-03-05T08:47:48.526Z,100338.20
2023-03-05T08:50:19.452Z,100337.52
2023-03-05T08:52:50.248Z,100338.67
2023-03-05T08:55:21.279Z,100331.83
2023-03-05T08:58:15.550Z,100333.05
2023-03-05T09:00:53.795Z,100329.14
2023-03-05T09:03:24.714Z,100327.08
2023-03-05T09:05:55.528Z,100321.60
2023-03-05T09:08:26.211Z,100317.20
2023-03-05T09:10:57.384Z,100318.17
2023-03-05T09:13:28.311Z,100311.19
2023-03-05T09:16:00.427Z,100309.19
2023-03-05T09:18:31.177Z,100307.17
2023-03-05T09:21:01.945Z,100304.60
2023-03-05T09:23:32.663Z,100303.73
2023-03-05T09:26:03.494Z,100299.01
2023-03-05T09:28:34.402Z,100297.27
2023-03-05T09:31:05.777Z,100290.80
2023-03-05T09:33:36.753Z,100285.36
2023-03-05T09:36:16.596Z,100281.91
2023-03-05T09:38:47.490Z,100278.80
2023-03-05T09:41:19.348Z,100273.66
2023-03-05T09:43:52.949Z,100272.70
2023-03-05T09:46:28.285Z,100269.25
2023-03-05T09:49:01.207Z,100266.98
2023-03-05T09:51:35.656Z,100269.04
2023-03-05T09:54:06.630Z,100260.52
2023-03-05T09:56:38.195Z,100258.29
2023-03-05T09:59:13.258Z,100253.80
2023-03-05T10:01:45.747Z,100248.31
2023-03-05T10:04:17.055Z,100244.15
2023-03-05T10:06:51.180Z,100239.81
2023-03-05T10:09:25.409Z,100234.98
2023-03-05T10:11:56.538Z,100230.15
2023-03-05T10:14:29.105Z,100225.61
2023-03-05T10:17:04.934Z,100218.52
2023-03-05T10:19:53.932Z,100212.92
2023-03-05T10:22:26.411Z,100207.63
2023-03-05T10:25:12.734Z,100204.45
2023-03-05T10:27:48.740Z,100198.73
2023-03-05T10:30:33.417Z,100190.02
2023-03-05T10:33:08.192Z,100185.98
2023-03-05T10:35:55.807Z,100183.39
2023-03-05T10:38:32.434Z,100178.39
2023-03-05T10:41:04.564Z,100170.39
2023-03-05T10:43:36.760Z,100171.83
2023-03-05T10:46:07.702Z,100166.95
2023-03-05T10:48:39.228Z,100166.59
2023-03-05T10:51:13.770Z,100155.20
2023-03-05T10:53:49.610Z,100153.75
2023-03-05T10:56:30.162Z,100151.60
2023-03-05T11:02:08.995Z,100139.85
2023-03-05T11:04:50.349Z,100136.23
2023-03-05T11:10:42.213Z,100125.23
2023-03-05T11:16:49.715Z,100114.92
2023-03-05T11:19:21.770Z,100111.36
2023-03-05T11:25:06.662Z,100100.61
2023-03-05T11:27:44.190Z,100098.99
2023-03-05T11:30:21.480Z,100091.20
2023-03-05T11:32:52.590Z,100088.89
2023-03-05T11:38:56.113Z,100079.78
2023-03-05T11:41:28.816Z,100074.38
2023-03-05T11:44:04.377Z,100072.13
2023-03-05T11:46:39.158Z,100070.66
2023-03-05T11:49:10.171Z,100067.48
2023-03-05T11:51:42.677Z,100056.14
2023-03-05T11:54:26.925Z,100060.48
2023-03-05T11:57:12.399Z,100053.05
2023-03-05T11:59:43.300Z,100050.13
2023-03-05T12:02:21.301Z,100046.79
2023-03-05T12:05:06.695Z,100045.77
2023-03-05T12:07:43.601Z,100038.80
2023-03-05T12:10:19.321Z,100039.30
2023-03-05T12:12:52.598Z,100037.29
2023-03-05T12:15:39.258Z,100036.94
2023-03-05T12:18:12.358Z,100033.05
2023-03-05T12:20:47.460Z,100030.37
2023-03-05T12:23:20.324Z,100023.79
2023-03-05T12:25:52.618Z,100024.33
2023-03-05T12:28:37.297Z,100023.74
2023-03-05T12:31:23.539Z,100016.57
2023-03-05T12:33:56.153Z,100016.88
2023-03-05T12:36:35.825Z,100015.77
2023-03-05T12:39:22.266Z,100015.23
2023-03-05T12:41:57.196Z,100010.55
2023-03-05T12:44:30.419Z,100006.29
2023-03-05T12:47:24.162Z,100007.55
2023-03-05T12:49:56.617Z,100004.24
2023-03-05T12:52:28.828Z,100005.67
2023-03-05T12:55:22.830Z,100004.58
2023-03-05T12:57:58.170Z,100003.35
2023-03-05T13:00:34.632Z,100006.34
2023-03-05T13:03:11.729Z,100004.62
2023-03-05T13:07:05.091Z,100002.56
2023-03-05T13:09:36.686Z,99998.52
2023-03-05T13:12:11.717Z,99998.91
2023-03-05T13:14:42.705Z,99996.32
2023-03-05T13:17:33.248Z,99993.48
2023-03-05T13:20:18.078Z,99992.28
2023-03-05T13:22:52.563Z,99992.28
2023-03-05T13:25:26.940Z,99994.12
2023-03-05T13:28:05.194Z,99991.61
2023-03-05T13:30:36.123Z,99988.46
2023-03-05T13:33:08.997Z,99990.70
2023-03-05T13:35:43.814Z,99993.19
2023-03-05T13:38:33.780Z,99989.23
2023-03-05T13:41:12.721Z,99985.50
2023-03-05T13:43:50.184Z,99983.82
2023-03-05T13:46:29.213Z,99981.83
2023-03-05T13:49:18.041Z,99983.59
2023-03-05T13:51:49.808Z,99979.73
2023-03-05T13:54:20.815Z,99977.41
2023-03-05T13:56:52.794Z,99977.89
2023-03-05T13:59:24.532Z,99980.87
2023-03-05T14:01:55.402Z,99977.42
2023-03-05T14:04:27.171Z,99977.22
2023-03-05T14:06:59.466Z,99977.81
2023-03-05T14:09:30.798Z,99976.86
2023-03-05T14:12:02.963Z,99977.33
2023-03-05T14:14:35.821Z,99972.52
2023-03-05T14:17:20.119Z,99977.11
2023-03-05T14:19:51.052Z,99975.52
2023-03-05T14:22:32.705Z,99972.85
2023-03-05T14:25:03.691Z,99969.04
2023-03-05T14:27:35.312Z,99965.19
2023-03-05T14:30:07.509Z,99963.02
2023-03-05T14:32:38.803Z,99959.45
2023-03-05T14:35:19.662Z,99956.41
2023-03-05T14:37:51.195Z,99958.90
2023-03-05T14:40:32.473Z,99955.94
2023-03-05T14:43:07.310Z,99958.42
2023-03-05T14:45:44.449Z,99956.83
2023-03-05T14:48:19.116Z,99954.67
2023-03-05T14:50:53.237Z,99958.45
2023-03-05T14:53:25.853Z,99961.55
2023-03-05T14:56:01.821Z,99959.45
2023-03-05T14:58:35.578Z,99960.52
2023-03-05T15:01:07.631Z,99961.97
2023-03-05T15:03:41.213Z,99959.88
2023-03-05T15:06:15.924Z,99962.34
2023-03-05T15:08:46.847Z,99960.02
2023-03-05T15:11:17.565Z,99957.58
2023-03-05T15:13:50.191Z,99961.02
2023-03-05T15:16:21.122Z,99964.98
2023-03-05T15:18:52.009Z,99964.09
2023-03-05T15:21:22.866Z,99964.98
2023-03-05T15:23:54.676Z,99964.74
2023-03-05T15:26:26.092Z,99964.38
2023-03-05T15:31:30.403Z,99960.06
2023-03-05T15:34:01.444Z,99960.23
2023-03-05T15:36:33.748Z,99960.01
2023-03-05T15:39:04.873Z,99956.94
2023-03-05T15:41:35.631Z,99958.46
2023-03-05T15:44:07.028Z,99959.11
2023-03-05T15:55:56.895Z,99967.41
2023-03-05T15:58:31.204Z,99964.73
2023-03-05T16:01:02.222Z,99964.84
2023-03-05T16:03:33.846Z,99963.48
2023-03-05T16:06:06.391Z,99965.90
2023-03-05T16:08:37.392Z,99965.58
2023-03-05T16:11:08.316Z,99965.82
2023-03-05T16:19:45.439Z,99962.45
2023-03-05T16:22:22.874Z,99965.85
2023-03-05T16:25:22.162Z,99966.36
2023-03-05T16:27:52.896Z,99967.98
2023-03-05T16:30:28.891Z,99968.05
2023-03-05T16:33:02.770Z,99968.20
2023-03-05T16:35:33.709Z,99967.98
2023-03-05T16:38:04.716Z,99968.90
2023-03-05T16:41:02.867Z,99969.20
2023-03-05T16:43:26.724Z,99974.00
2023-03-05T16:45:57.425Z,99976.12
2023-03-05T16:48:28.370Z,99979.95
2023-03-05T16:50:59.420Z,99975.77
2023-03-05T16:53:34.433Z,99978.11
2023-03-05T16:56:06.105Z,99975.93
2023-03-05T16:58:37.710Z,99978.79
2023-03-05T17:01:12.321Z,99975.00
2023-03-05T17:04:08.833Z,99975.70
2023-03-05T17:06:39.678Z,99972.83
2023-03-05T17:09:10.584Z,99968.81
2023-03-05T17:11:45.245Z,99966.14
2023-03-05T17:20:35.727Z,99964.00
2023-03-05T17:23:06.449Z,99967.31
2023-03-05T17:25:37.249Z,99968.16
2023-03-05T17:28:08.174Z,99967.23
2023-03-05T17:30:39.024Z,99971.02
2023-03-05T17:33:17.378Z,99972.65
2023-03-05T17:35:52.846Z,99970.23
2023-03-05T17:38:23.670Z,99968.87
2023-03-05T17:40:56.886Z,99967.16
2023-03-05T17:43:28.034Z,99964.52
2023-03-05T17:46:00.854Z,99962.31
2023-03-05T17:48:34.354Z,99964.05
2023-03-05T17:51:06.318Z,99966.61
2023-03-05T17:53:39.136Z,99962.22
2023-03-05T17:56:25.221Z,99960.86
2023-03-05T17:59:06.656Z,99961.38
2023-03-05T18:01:39.025Z,99966.16
2023-03-05T18:04:11.290Z,99969.83
2023-03-05T18:07:04.634Z,99969.40
2023-03-05T18:09:58.938Z,99970.73
2023-03-05T18:12:30.232Z,99972.03
2023-03-05T18:15:01.083Z,99971.71
2023-03-05T18:17:31.846Z,99971.29
2023-03-05T18:20:13.326Z,99971.17
2023-03-05T18:23:01.143Z,99970.27
2023-03-05T18:25:32.404Z,99966.85
2023-03-05T18:28:04.774Z,99965.20
2023-03-05T18:30:35.791Z,99964.05
2023-03-05T18:33:09.316Z,99963.18
2023-03-05T18:35:40.356Z,99965.34
2023-03-05T18:38:11.150Z,99966.33
2023-03-05T18:40:41.946Z,99966.89
2023-03-05T18:43:17.971Z,99965.91
2023-03-05T18:46:26.430Z,99964.57
2023-03-05T18:49:01.947Z,99963.45
2023-03-05T18:51:44.612Z,99967.74
2023-03-05T18:54:29.758Z,99971.23
2023-03-05T18:57:01.375Z,99968.73
2023-03-05T18:59:34.689Z,99972.31
2023-03-05T19:02:05.543Z,99967.96
2023-03-05T19:04:36.635Z,99971.58
2023-03-05T19:07:07.700Z,99969.09
2023-03-05T19:09:59.017Z,99974.39
2023-03-05T19:12:33.092Z,99973.27
2023-03-05T19:15:04.344Z,99978.16
2023-03-05T19:17:35.409Z,99978.95
2023-03-05T19:20:08.005Z,99980.52
2023-03-05T19:22:38.853Z,99983.53
2023-03-05T19:25:11.516Z,99989.86
2023-03-05T19:27:42.517Z,99989.62
2023-03-05T19:30:16.132Z,99994.33
2023-03-05T19:32:49.841Z,99996.82
2023-03-05T19:35:20.824Z,100001.92
2023-03-05T19:37:51.647Z,100004.13
2023-03-05T19:40:22.661Z,100005.29
2023-03-05T19:42:55.825Z,100004.52
2023-03-05T19:45:26.621Z,100004.01
2023-03-05T19:47:57.258Z,100006.45
2023-03-05T19:50:28.095Z,100010.64
2023-03-05T19:52:58.899Z,100008.14
2023-03-05T19:55:29.973Z,100011.84
2023-03-05T19:58:00.853Z,100016.27
2023-03-05T20:00:34.638Z,100018.17
2023-03-05T20:03:05.379Z,100016.55
2023-03-05T20:05:37.020Z,100017.63
2023-03-05T20:08:07.910Z,100015.36
2023-03-05T20:10:38.819Z,100016.46
2023-03-05T20:13:09.788Z,100013.58
2023-03-05T20:15:40.590Z,100013.06
2023-03-05T20:18:11.465Z,100016.29
2023-03-05T20:20:42.343Z,100016.20
2023-03-05T20:23:13.186Z,100017.52
2023-03-05T20:25:44.113Z,100021.05
2023-03-05T20:28:15.121Z,100022.64
2023-03-05T20:30:45.891Z,100025.25
2023-03-05T20:33:16.669Z,100029.41
2023-03-05T20:35:47.540Z,100032.20
2023-03-05T20:38:26.326Z,100034.02
2023-03-05T20:40:58.873Z,100032.95
2023-03-05T20:43:30.505Z,100033.16
2023-03-05T20:46:01.647Z,100036.46
2023-03-05T20:48:33.048Z,100035.27
2023-03-05T20:51:13.103Z,100036.45
2023-03-05T20:53:43.942Z,100034.02
2023-03-05T20:56:14.826Z,100038.27
2023-03-05T20:58:45.721Z,100038.85
2023-03-05T21:01:16.506Z,100039.98
2023-03-05T21:03:47.351Z,100041.94
2023-03-05T21:06:18.126Z,100043.91
2023-03-05T21:08:49.049Z,100045.87
2023-03-05T21:11:19.976Z,100044.20
2023-03-05T21:13:50.762Z,100042.33
2023-03-05T21:16:22.576Z,100042.32
2023-03-05T21:18:53.709Z,100043.33
2023-03-05T21:21:24.647Z,100046.70
2023-03-05T21:23:55.593Z,100046.41
2023-03-05T21:26:26.502Z,100047.33
2023-03-05T21:28:57.385Z,100043.16
2023-03-05T21:31:28.154Z,100043.34
2023-03-05T21:33:58.951Z,100039.11
2023-03-05T21:36:29.692Z,100044.70
2023-03-05T21:39:00.913Z,100044.05
2023-03-05T21:41:31.828Z,100040.36
2023-03-05T21:44:04.263Z,100041.05
2023-03-05T21:46:35.385Z,100043.36
2023-03-05T21:49:06.248Z,100039.56
2023-03-05T21:52:09.489Z,100038.48
2023-03-05T21:54:40.482Z,100039.15
2023-03-05T21:57:11.873Z,100037.05
2023-03-05T21:59:42.993Z,100040.56
2023-03-05T22:02:14.141Z,100037.98
2023-03-05T22:04:45.066Z,100039.42
2023-03-05T22:07:16.186Z,100044.54
2023-03-05T22:09:47.295Z,100045.04
2023-03-05T22:13:00.557Z,100040.52
2023-03-05T22:15:31.391Z,100042.23
2023-03-05T22:18:02.240Z,100044.21
2023-03-05T22:20:35.097Z,100042.68
2023-03-05T22:23:06.009Z,100045.15
2023-03-05T22:25:36.894Z,100053.88
2023-03-05T22:28:07.780Z,100052.26
2023-03-05T22:30:38.890Z,100050.50
2023-03-05T22:33:09.852Z,100052.11
2023-03-05T22:35:41.455Z,100052.05
2023-03-05T22:38:12.832Z,100049.34
2023-03-05T22:40:44.339Z,100050.79
2023-03-05T22:43:15.350Z,100056.20
2023-03-05T22:45:46.425Z,100057.05
2023-03-05T22:48:17.423Z,100052.33
2023-03-05T22:50:48.253Z,100049.96
2023-03-05T22:53:19.102Z,100052.51
2023-03-05T22:55:50.672Z,100056.15
2023-03-05T22:58:21.564Z,100056.88
2023-03-05T23:00:52.512Z,100054.04
2023-03-05T23:03:23.431Z,100061.77
2023-03-05T23:05:54.354Z,100061.17
2023-03-05T23:08:25.189Z,100056.95
2023-03-05T23:10:56.028Z,100062.16
2023-03-05T23:13:26.964Z,100063.45
2023-03-05T23:15:57.954Z,100062.91
2023-03-05T23:18:28.917Z,100065.75
2023-03-05T23:20:59.887Z,100065.88
2023-03-05T23:23:30.740Z,100062.33
2023-03-05T23:26:01.524Z,100062.34
2023-03-05T23:28:32.391Z,100061.66
2023-03-05T23:31:04.048Z,100061.01
2023-03-05T23:33:34.858Z,100059.87
2023-03-05T23:36:06.016Z,100061.35
2023-03-05T23:38:37.912Z,100064.16
2023-03-05T23:41:10.049Z,100066.44
2023-03-05T23:43:40.915Z,100063.73
2023-03-05T23:46:13.110Z,100069.40
2023-03-05T23:48:44.094Z,100071.73
2023-03-05T23:51:15.036Z,100069.33
2023-03-05T23:53:45.911Z,100067.11
2023-03-05T23:56:16.839Z,100065.86
2023-03-05T23:58:47.623Z,100065.75
